createdAt,value
2018-11-10T00:02:06.905Z,77.88
2018-11-10T00:04:34.384Z,77.70
2018-11-10T00:07:01.800Z,77.30
2018-11-10T00:09:29.227Z,76.90
2018-11-10T00:11:56.631Z,77.03
2018-11-10T00:14:24.086Z,76.82
2018-11-10T00:16:51.531Z,76.57
2018-11-10T00:19:18.965Z,76.41
2018-11-10T00:21:47.288Z,76.94
2018-11-10T00:24:14.754Z,77.25
2018-11-10T00:26:42.220Z,77.23
2018-11-10T00:29:09.717Z,77.54
2018-11-10T00:31:37.277Z,77.64
2018-11-10T00:34:04.703Z,77.66
2018-11-10T00:36:32.140Z,77.65
2018-11-10T00:38:59.619Z,78.11
2018-11-10T00:41:27.024Z,78.34
2018-11-10T00:43:54.433Z,78.94
2018-11-10T00:46:22.062Z,79.27
2018-11-10T00:48:49.547Z,79.40
2018-11-10T00:51:16.997Z,79.42
2018-11-10T00:53:44.445Z,79.30
2018-11-10T00:56:11.948Z,79.43
2018-11-10T00:58:39.422Z,79.41
2018-11-10T01:01:06.880Z,79.57
2018-11-10T01:03:34.402Z,79.46
2018-11-10T01:06:01.813Z,79.65
2018-11-10T01:08:29.323Z,79.79
2018-11-10T01:10:56.727Z,79.84
2018-11-10T01:13:24.186Z,80.32
2018-11-10T01:15:51.647Z,80.43
2018-11-10T01:18:19.084Z,80.63
2018-11-10T01:20:46.487Z,80.87
2018-11-10T01:23:13.935Z,80.89
2018-11-10T01:25:42.117Z,80.69
2018-11-10T01:28:09.631Z,80.63
2018-11-10T01:30:37.067Z,80.45
2018-11-10T01:33:04.482Z,80.35
2018-11-10T01:35:31.918Z,80.56
2018-11-10T01:37:59.350Z,80.62
2018-11-10T01:40:27.522Z,80.78
2018-11-10T01:42:55.034Z,80.87
2018-11-10T01:45:22.453Z,81.09
2018-11-10T01:47:50.871Z,80.98
2018-11-10T01:50:18.325Z,80.86
2018-11-10T01:52:45.773Z,80.63
2018-11-10T01:55:13.222Z,80.45
2018-11-10T01:57:40.822Z,80.30
2018-11-10T02:00:08.259Z,80.19
2018-11-10T02:02:35.678Z,80.06
2018-11-10T02:05:03.154Z,80.03
2018-11-10T02:07:30.659Z,80.27
2018-11-10T02:09:58.072Z,80.17
2018-11-10T02:12:25.489Z,80.10
2018-11-10T02:14:52.938Z,80.01
2018-11-10T02:17:20.361Z,80.27
2018-11-10T02:19:47.872Z,80.34
2018-11-10T02:22:15.355Z,80.51
2018-11-10T02:24:42.796Z,80.76
2018-11-10T02:27:10.273Z,81.27
2018-11-10T02:29:37.741Z,81.76
2018-11-10T02:32:05.356Z,81.75
2018-11-10T02:34:33.292Z,81.67
2018-11-10T02:37:00.750Z,81.79
2018-11-10T02:39:28.181Z,82.33
2018-11-10T02:41:55.680Z,82.51
2018-11-10T02:44:23.080Z,82.34
2018-11-10T02:46:50.519Z,82.46
2018-11-10T02:49:17.992Z,82.72
2018-11-10T02:51:45.436Z,82.87
2018-11-10T02:54:12.894Z,82.59
2018-11-10T02:56:40.375Z,82.47
2018-11-10T02:59:07.855Z,82.39
2018-11-10T03:01:35.308Z,82.47
2018-11-10T03:04:02.752Z,82.78
2018-11-10T03:06:30.218Z,83.04
2018-11-10T03:08:57.671Z,82.99
2018-11-10T03:11:25.094Z,83.42
2018-11-10T03:13:53.007Z,83.41
2018-11-10T03:16:20.545Z,83.30
2018-11-10T03:18:47.876Z,83.01
2018-11-10T03:21:15.330Z,82.73
2018-11-10T03:23:42.774Z,82.30
2018-11-10T03:26:10.244Z,82.22
2018-11-10T03:28:37.689Z,82.16
2018-11-10T03:31:05.197Z,82.12
2018-11-10T03:33:32.655Z,81.91
2018-11-10T03:36:00.087Z,82.00
2018-11-10T03:38:27.502Z,82.13
2018-11-10T03:40:54.975Z,82.89
2018-11-10T03:43:22.389Z,83.98
2018-11-10T03:45:49.827Z,84.21
2018-11-10T03:48:17.259Z,83.88
2018-11-10T03:50:44.670Z,83.76
2018-11-10T03:53:12.102Z,83.55
2018-11-10T03:55:39.551Z,83.44
2018-11-10T03:58:07.001Z,83.35
2018-11-10T04:00:34.421Z,83.86
2018-11-10T04:03:01.923Z,84.02
2018-11-10T04:05:29.381Z,84.24
2018-11-10T04:07:56.822Z,84.41
2018-11-10T04:10:24.334Z,84.57
2018-11-10T04:12:51.793Z,84.94
2018-11-10T04:15:19.163Z,85.19
2018-11-10T04:17:46.590Z,85.39
2018-11-10T04:20:14.037Z,85.30
2018-11-10T04:22:42.355Z,84.78
2018-11-10T04:25:09.787Z,84.33
2018-11-10T04:27:37.372Z,84.03
2018-11-10T04:30:04.755Z,83.83
2018-11-10T04:32:32.948Z,83.79
2018-11-10T04:35:00.418Z,83.93
2018-11-10T04:37:27.863Z,83.89
2018-11-10T04:39:55.297Z,83.87
2018-11-10T04:42:22.753Z,83.87
2018-11-10T04:44:50.215Z,83.79
2018-11-10T04:47:18.333Z,83.69
2018-11-10T04:49:45.863Z,84.06
2018-11-10T04:52:13.281Z,84.41
2018-11-10T04:54:40.750Z,84.38
2018-11-10T04:57:08.170Z,84.45
2018-11-10T04:59:35.625Z,84.16
2018-11-10T05:02:03.065Z,83.91
2018-11-10T05:04:30.533Z,84.12
2018-11-10T05:06:57.975Z,84.39
2018-11-10T05:09:25.377Z,84.23
2018-11-10T05:11:52.798Z,83.97
2018-11-10T05:14:20.227Z,83.91
2018-11-10T05:16:47.655Z,83.78
2018-11-10T05:19:15.146Z,83.62
2018-11-10T05:21:42.594Z,83.78
2018-11-10T05:24:10.109Z,83.57
2018-11-10T05:26:37.546Z,83.52
2018-11-10T05:29:05.019Z,83.54
2018-11-10T05:31:32.469Z,83.67
2018-11-10T05:33:59.907Z,83.56
2018-11-10T05:36:27.360Z,83.34
2018-11-10T05:38:55.193Z,83.13
2018-11-10T05:41:22.639Z,83.23
2018-11-10T05:43:50.053Z,83.23
2018-11-10T05:46:17.503Z,83.03
2018-11-10T05:48:44.914Z,82.83
2018-11-10T05:51:12.327Z,82.66
2018-11-10T05:53:39.825Z,82.77
2018-11-10T05:56:07.246Z,82.32
2018-11-10T05:58:34.751Z,82.33
2018-11-10T06:01:02.194Z,82.57
2018-11-10T06:03:29.646Z,82.91
2018-11-10T06:05:57.090Z,83.01
2018-11-10T06:08:24.735Z,82.72
2018-11-10T06:10:52.145Z,82.87
2018-11-10T06:13:19.550Z,82.84
2018-11-10T06:15:46.956Z,82.60
2018-11-10T06:18:14.371Z,82.88
2018-11-10T06:20:41.782Z,82.70
2018-11-10T06:23:09.251Z,82.50
2018-11-10T06:25:37.069Z,82.42
2018-11-10T06:28:04.516Z,82.56
2018-11-10T06:30:32.600Z,82.36
2018-11-10T06:32:59.993Z,81.87
2018-11-10T06:35:27.390Z,81.16
2018-11-10T06:37:54.862Z,80.81
2018-11-10T06:40:22.299Z,80.82
2018-11-10T06:42:49.742Z,81.06
2018-11-10T06:45:17.180Z,81.55
2018-11-10T06:47:44.880Z,82.13
2018-11-10T06:50:12.283Z,82.14
2018-11-10T06:52:39.712Z,82.16
2018-11-10T06:55:07.177Z,81.79
2018-11-10T06:57:35.089Z,81.23
2018-11-10T07:00:02.519Z,80.60
2018-11-10T07:02:30.038Z,80.53
2018-11-10T07:04:57.462Z,80.46
2018-11-10T07:07:25.906Z,80.23
2018-11-10T07:09:53.315Z,80.05
2018-11-10T07:12:20.743Z,79.72
2018-11-10T07:14:48.158Z,79.65
2018-11-10T07:17:15.602Z,79.54
2018-11-10T07:19:43.102Z,79.46
2018-11-10T07:22:10.577Z,79.15
2018-11-10T07:24:38.017Z,78.98
2018-11-10T07:27:05.449Z,78.60
2018-11-10T07:29:32.843Z,78.12
2018-11-10T07:32:00.373Z,77.86
2018-11-10T07:34:27.955Z,77.53
2018-11-10T07:36:55.365Z,77.71
2018-11-10T07:39:22.792Z,78.23
2018-11-10T07:41:50.934Z,78.16
2018-11-10T07:44:18.393Z,77.78
2018-11-10T07:46:45.953Z,77.78
2018-11-10T07:49:13.437Z,77.52
2018-11-10T07:51:40.823Z,76.96
2018-11-10T07:54:08.260Z,76.80
2018-11-10T07:56:35.712Z,76.50
2018-11-10T07:59:03.154Z,76.02
2018-11-10T08:01:30.682Z,75.72
2018-11-10T08:03:58.132Z,75.16
2018-11-10T08:06:25.575Z,74.75
2018-11-10T08:08:53.058Z,74.45
2018-11-10T08:11:20.515Z,74.55
2018-11-10T08:13:47.984Z,74.41
2018-11-10T08:16:15.412Z,73.98
2018-11-10T08:18:42.971Z,73.85
2018-11-10T08:21:10.680Z,74.20
2018-11-10T08:23:38.120Z,74.48
2018-11-10T08:26:05.561Z,74.50
2018-11-10T08:28:33.035Z,74.48
2018-11-10T08:31:00.522Z,74.41
2018-11-10T08:33:27.948Z,74.33
2018-11-10T08:35:55.438Z,74.67
2018-11-10T08:38:23.602Z,74.88
2018-11-10T08:40:51.034Z,74.80
2018-11-10T08:43:18.447Z,74.66
2018-11-10T08:45:46.006Z,74.25
2018-11-10T08:48:13.449Z,74.41
2018-11-10T08:50:40.979Z,74.19
2018-11-10T08:53:08.415Z,73.96
2018-11-10T08:55:35.891Z,73.22
2018-11-10T08:58:03.758Z,72.78
2018-11-10T09:00:31.197Z,72.79
2018-11-10T09:02:58.638Z,73.14
2018-11-10T09:05:26.061Z,72.83
2018-11-10T09:07:53.637Z,72.99
2018-11-10T09:10:21.930Z,73.03
2018-11-10T09:12:49.371Z,73.06
2018-11-10T09:15:16.977Z,73.36
2018-11-10T09:17:44.323Z,73.72
2018-11-10T09:20:11.736Z,73.62
2018-11-10T09:22:39.247Z,73.86
2018-11-10T09:25:06.804Z,73.58
2018-11-10T09:27:34.406Z,73.13
2018-11-10T09:30:02.069Z,72.86
2018-11-10T09:32:29.499Z,72.94
2018-11-10T09:34:57.185Z,72.37
2018-11-10T09:37:24.640Z,72.12
2018-11-10T09:39:52.077Z,72.10
2018-11-10T09:42:19.831Z,71.80
2018-11-10T09:44:47.239Z,71.64
2018-11-10T09:47:14.642Z,72.15
2018-11-10T09:49:42.165Z,72.39
2018-11-10T09:52:09.585Z,73.02
2018-11-10T09:54:37.009Z,73.05
2018-11-10T09:57:04.539Z,72.73
2018-11-10T09:59:32.080Z,73.14
2018-11-10T10:02:00.711Z,72.97
2018-11-10T10:04:28.554Z,72.84
2018-11-10T10:06:55.978Z,72.20
2018-11-10T10:09:23.431Z,71.81
2018-11-10T10:11:50.906Z,71.63
2018-11-10T10:14:18.306Z,71.55
2018-11-10T10:16:45.977Z,71.34
2018-11-10T10:19:13.410Z,70.88
2018-11-10T10:21:41.030Z,70.87
2018-11-10T10:24:08.483Z,70.92
2018-11-10T10:26:36.039Z,70.80
2018-11-10T10:29:03.576Z,70.94
2018-11-10T10:31:30.978Z,70.96
2018-11-10T10:33:58.506Z,70.72
2018-11-10T10:36:25.968Z,70.63
2018-11-10T10:38:53.510Z,70.31
2018-11-10T10:41:21.090Z,70.19
2018-11-10T10:43:48.523Z,70.39
2018-11-10T10:46:16.902Z,70.37
2018-11-10T10:48:44.445Z,70.26
2018-11-10T10:51:12.118Z,70.42
2018-11-10T10:53:39.576Z,70.24
2018-11-10T10:56:07.135Z,69.96
2018-11-10T10:58:34.540Z,69.72
2018-11-10T11:01:02.188Z,69.84
2018-11-10T11:03:29.701Z,69.69
2018-11-10T11:05:57.203Z,69.01
2018-11-10T11:08:24.618Z,67.93
2018-11-10T11:10:52.051Z,66.49
2018-11-10T11:13:19.500Z,65.56
2018-11-10T11:15:47.009Z,63.45
2018-11-10T11:18:14.340Z,65.00
2018-11-10T11:20:41.821Z,66.48
2018-11-10T11:23:09.336Z,67.32
2018-11-10T11:25:38.014Z,68.15
2018-11-10T11:28:05.464Z,67.96
2018-11-10T11:30:32.878Z,68.63
2018-11-10T11:33:01.206Z,69.09
2018-11-10T11:35:28.707Z,69.33
2018-11-10T11:37:56.162Z,69.64
2018-11-10T11:40:24.246Z,69.92
2018-11-10T11:42:51.805Z,69.74
2018-11-10T11:45:19.296Z,70.10
2018-11-10T11:47:46.732Z,70.74
2018-11-10T11:50:14.180Z,70.57
2018-11-10T11:52:41.701Z,70.57
2018-11-10T11:55:09.199Z,70.87
2018-11-10T11:57:36.701Z,70.93
2018-11-10T12:00:05.238Z,71.19
2018-11-10T12:02:32.672Z,71.69
2018-11-10T12:05:00.152Z,71.63
2018-11-10T12:07:27.738Z,72.01
2018-11-10T12:09:55.217Z,72.06
2018-11-10T12:12:22.789Z,71.60
2018-11-10T12:14:50.385Z,71.54
2018-11-10T12:17:17.839Z,71.62
2018-11-10T12:19:45.369Z,71.25
2018-11-10T12:22:12.891Z,71.20
2018-11-10T12:24:40.269Z,71.46
2018-11-10T12:27:08.581Z,71.81
2018-11-10T12:29:36.124Z,71.84
2018-11-10T12:32:03.594Z,71.98
2018-11-10T12:34:31.030Z,72.25
2018-11-10T12:36:58.464Z,72.85
2018-11-10T12:39:27.025Z,73.36
2018-11-10T12:41:54.481Z,73.19
2018-11-10T12:44:22.755Z,73.23
2018-11-10T12:46:50.347Z,73.33
2018-11-10T12:49:17.896Z,74.10
2018-11-10T12:51:45.215Z,74.29
2018-11-10T12:54:12.642Z,74.90
2018-11-10T12:56:40.110Z,74.42
2018-11-10T12:59:08.498Z,74.74
2018-11-10T13:01:36.066Z,75.12
2018-11-10T13:04:04.272Z,75.25
2018-11-10T13:06:31.729Z,74.98
2018-11-10T13:08:59.259Z,75.16
2018-11-10T13:11:26.896Z,75.87
2018-11-10T13:16:28.052Z,75.87
2018-11-10T13:18:55.464Z,75.75
2018-11-10T13:21:23.076Z,75.82
2018-11-10T13:23:50.649Z,76.03
2018-11-10T13:26:18.098Z,76.10
2018-11-10T13:28:45.627Z,75.64
2018-11-10T13:31:13.877Z,75.69
2018-11-10T13:33:41.549Z,75.62
2018-11-10T13:36:09.007Z,75.25
2018-11-10T13:38:36.475Z,75.06
2018-11-10T13:41:03.935Z,75.19
2018-11-10T13:43:31.959Z,75.87
2018-11-10T13:45:59.389Z,76.13
2018-11-10T13:48:26.876Z,77.27
2018-11-10T13:50:54.522Z,77.88
2018-11-10T13:53:21.792Z,78.44
2018-11-10T13:55:49.277Z,78.35
2018-11-10T13:58:17.099Z,78.70
2018-11-10T14:00:44.567Z,78.78
2018-11-10T14:03:12.152Z,78.92
2018-11-10T14:05:39.686Z,78.59
2018-11-10T14:08:07.072Z,78.55
2018-11-10T14:10:34.635Z,78.35
2018-11-10T14:13:02.094Z,77.91
2018-11-10T14:15:29.537Z,78.16
2018-11-10T14:17:57.008Z,78.38
2018-11-10T14:20:24.532Z,78.19
2018-11-10T14:22:51.949Z,77.94
2018-11-10T14:25:19.643Z,77.71
2018-11-10T14:27:47.144Z,77.30
2018-11-10T14:30:14.558Z,76.93
2018-11-10T14:32:42.054Z,76.79
2018-11-10T14:35:09.774Z,76.73
2018-11-10T14:37:37.178Z,76.07
2018-11-10T14:40:04.622Z,75.89
2018-11-10T14:42:33.196Z,76.33
2018-11-10T14:45:00.664Z,76.24
2018-11-10T14:47:28.161Z,76.59
2018-11-10T14:49:55.613Z,76.68
2018-11-10T14:52:23.140Z,76.51
2018-11-10T14:54:51.347Z,76.55
2018-11-10T14:57:18.867Z,76.55
2018-11-10T14:59:46.274Z,76.58
2018-11-10T15:02:13.741Z,77.08
2018-11-10T15:04:41.694Z,77.66
2018-11-10T15:07:09.215Z,77.84
2018-11-10T15:09:36.681Z,77.73
2018-11-10T15:12:04.254Z,77.42
2018-11-10T15:14:31.664Z,77.49
2018-11-10T15:16:59.071Z,77.29
2018-11-10T15:19:26.590Z,77.30
2018-11-10T15:21:54.044Z,77.50
2018-11-10T15:24:21.491Z,77.73
2018-11-10T15:26:48.930Z,78.03
2018-11-10T15:29:16.856Z,77.94
2018-11-10T15:31:44.299Z,78.20
2018-11-10T15:34:11.702Z,78.31
2018-11-10T15:36:39.244Z,78.53
2018-11-10T15:39:06.706Z,78.40
2018-11-10T15:41:34.929Z,78.53
2018-11-10T15:44:02.423Z,78.74
2018-11-10T15:46:29.863Z,78.84
2018-11-10T15:48:57.292Z,78.96
2018-11-10T15:51:25.319Z,79.09
2018-11-10T15:53:52.780Z,79.04
2018-11-10T15:56:20.244Z,79.17
2018-11-10T15:58:47.696Z,79.35
2018-11-10T16:01:15.142Z,79.66
2018-11-10T16:03:42.625Z,79.85
2018-11-10T16:06:10.084Z,79.95
2018-11-10T16:08:37.689Z,80.19
2018-11-10T16:11:05.086Z,80.47
2018-11-10T16:13:32.641Z,80.37
2018-11-10T16:16:00.114Z,80.50
2018-11-10T16:18:27.550Z,80.62
2018-11-10T16:20:55.011Z,80.56
2018-11-10T16:23:22.432Z,80.69
2018-11-10T16:25:49.923Z,80.88
2018-11-10T16:28:17.344Z,80.61
2018-11-10T16:30:45.012Z,80.50
2018-11-10T16:33:12.486Z,80.46
2018-11-10T16:35:39.986Z,80.51
2018-11-10T16:38:07.426Z,80.93
2018-11-10T16:40:34.858Z,81.19
2018-11-10T16:43:02.310Z,81.35
2018-11-10T16:45:29.809Z,81.74
2018-11-10T16:47:57.241Z,82.18
2018-11-10T16:50:24.675Z,82.06
2018-11-10T16:52:52.149Z,82.48
2018-11-10T16:55:19.658Z,83.24
2018-11-10T16:57:47.050Z,83.70
2018-11-10T17:00:14.938Z,83.40
2018-11-10T17:02:42.415Z,83.52
2018-11-10T17:05:09.859Z,83.77
2018-11-10T17:07:37.311Z,83.78
2018-11-10T17:10:04.737Z,83.74
2018-11-10T17:12:32.186Z,84.07
2018-11-10T17:14:59.652Z,84.36
2018-11-10T17:17:27.132Z,83.74
2018-11-10T17:19:54.600Z,83.44
2018-11-10T17:22:22.031Z,83.13
2018-11-10T17:24:49.453Z,82.92
2018-11-10T17:27:16.964Z,83.04
2018-11-10T17:29:44.487Z,83.09
2018-11-10T17:32:11.936Z,83.16
2018-11-10T17:34:39.368Z,83.30
2018-11-10T17:37:06.873Z,83.20
2018-11-10T17:39:34.366Z,82.97
2018-11-10T17:42:01.935Z,82.73
2018-11-10T17:44:29.361Z,82.69
2018-11-10T17:46:56.828Z,82.58
2018-11-10T17:49:24.329Z,82.56
2018-11-10T17:51:51.844Z,82.79
2018-11-10T17:54:19.335Z,83.03
2018-11-10T17:56:46.771Z,82.90
2018-11-10T17:59:14.222Z,82.90
2018-11-10T18:01:41.692Z,83.09
2018-11-10T18:04:09.137Z,82.97
2018-11-10T18:06:36.598Z,83.12
2018-11-10T18:09:04.030Z,83.17
2018-11-10T18:11:31.493Z,83.06
2018-11-10T18:13:59.016Z,83.01
2018-11-10T18:16:26.462Z,82.89
2018-11-10T18:18:53.982Z,83.04
2018-11-10T18:21:21.399Z,83.13
2018-11-10T18:23:48.881Z,83.26
2018-11-10T18:26:16.303Z,83.46
2018-11-10T18:28:43.736Z,83.48
2018-11-10T18:31:11.201Z,83.62
2018-11-10T18:33:39.026Z,83.88
2018-11-10T18:36:06.482Z,84.42
2018-11-10T18:38:33.915Z,84.61
2018-11-10T18:41:01.341Z,84.60
2018-11-10T18:43:28.745Z,84.61
2018-11-10T18:45:56.191Z,84.71
2018-11-10T18:48:23.601Z,84.48
2018-11-10T18:50:51.064Z,84.45
2018-11-10T18:53:18.474Z,84.45
2018-11-10T18:55:46.043Z,84.46
2018-11-10T18:58:13.596Z,84.86
2018-11-10T19:00:40.967Z,85.10
2018-11-10T19:03:08.408Z,85.21
2018-11-10T19:05:35.829Z,85.22
2018-11-10T19:08:03.272Z,85.23
2018-11-10T19:10:30.710Z,84.98
2018-11-10T19:12:58.176Z,84.79
2018-11-10T19:15:25.592Z,84.54
2018-11-10T19:17:53.966Z,84.96
2018-11-10T19:20:21.442Z,85.17
2018-11-10T19:22:49.011Z,85.04
2018-11-10T19:25:16.417Z,85.03
2018-11-10T19:27:43.979Z,85.00
2018-11-10T19:30:11.647Z,84.77
2018-11-10T19:32:39.148Z,85.20
2018-11-10T19:35:06.599Z,84.90
2018-11-10T19:37:34.142Z,84.88
2018-11-10T19:40:01.661Z,85.06
2018-11-10T19:42:29.064Z,85.19
2018-11-10T19:44:56.486Z,85.00
2018-11-10T19:47:23.920Z,85.09
2018-11-10T19:49:51.428Z,85.03
2018-11-10T19:52:18.866Z,85.06
2018-11-10T19:54:46.396Z,85.07
2018-11-10T19:57:13.852Z,85.02
2018-11-10T19:59:41.311Z,85.09
2018-11-10T20:02:08.804Z,85.12
2018-11-10T20:04:36.224Z,85.16
2018-11-10T20:07:03.650Z,85.25
2018-11-10T20:09:31.107Z,85.29
2018-11-10T20:11:58.538Z,85.26
2018-11-10T20:14:26.112Z,85.22
2018-11-10T20:16:53.565Z,85.11
2018-11-10T20:19:21.039Z,85.32
2018-11-10T20:21:48.449Z,85.41
2018-11-10T20:24:16.798Z,85.23
2018-11-10T20:26:44.205Z,85.32
2018-11-10T20:29:11.670Z,85.25
2018-11-10T20:31:39.103Z,85.47
2018-11-10T20:34:06.658Z,85.57
2018-11-10T20:36:34.070Z,85.19
2018-11-10T20:39:01.629Z,85.38
2018-11-10T20:41:28.973Z,85.22
2018-11-10T20:43:56.442Z,85.34
2018-11-10T20:46:23.886Z,85.43
2018-11-10T20:48:51.316Z,85.56
2018-11-10T20:51:18.896Z,85.63
2018-11-10T20:53:46.320Z,85.71
2018-11-10T20:56:14.162Z,85.65
2018-11-10T20:58:41.634Z,85.74
2018-11-10T21:01:09.060Z,86.12
2018-11-10T21:03:36.576Z,86.19
2018-11-10T21:06:04.167Z,85.92
2018-11-10T21:08:31.791Z,85.80
2018-11-10T21:10:59.253Z,85.73
2018-11-10T21:13:26.723Z,85.84
2018-11-10T21:15:54.130Z,85.99
2018-11-10T21:18:21.568Z,85.77
2018-11-10T21:20:49.135Z,85.74
2018-11-10T21:23:16.567Z,85.75
2018-11-10T21:25:44.005Z,85.96
2018-11-10T21:28:11.549Z,86.21
2018-11-10T21:30:39.085Z,86.75
2018-11-10T21:33:06.727Z,86.80
2018-11-10T21:35:34.896Z,86.74
2018-11-10T21:38:02.533Z,86.74
2018-11-10T21:40:29.950Z,86.58
2018-11-10T21:42:57.408Z,86.40
2018-11-10T21:45:24.874Z,86.44
2018-11-10T21:47:52.323Z,86.25
2018-11-10T21:50:19.796Z,86.09
2018-11-10T21:52:47.233Z,85.94
2018-11-10T21:55:14.692Z,85.93
2018-11-10T21:57:42.180Z,86.04
2018-11-10T22:00:09.662Z,85.94
2018-11-10T22:02:37.156Z,85.89
2018-11-10T22:05:04.959Z,85.83
2018-11-10T22:07:32.370Z,85.72
2018-11-10T22:10:00.000Z,85.53
2018-11-10T22:12:27.324Z,85.31
2018-11-10T22:14:54.757Z,85.58
2018-11-10T22:17:22.193Z,85.58
2018-11-10T22:19:49.662Z,85.65
2018-11-10T22:22:17.148Z,85.53
2018-11-10T22:24:44.597Z,85.53
2018-11-10T22:27:12.031Z,85.57
2018-11-10T22:29:39.521Z,85.67
2018-11-10T22:32:06.926Z,85.44
2018-11-10T22:34:34.349Z,85.63
2018-11-10T22:37:01.848Z,86.02
2018-11-10T22:39:29.266Z,86.31
2018-11-10T22:41:56.713Z,86.34
2018-11-10T22:44:24.175Z,86.53
2018-11-10T22:46:51.635Z,86.83
2018-11-10T22:49:19.072Z,86.96
2018-11-10T22:51:46.524Z,86.62
2018-11-10T22:54:14.026Z,86.41
2018-11-10T22:56:41.550Z,86.57
2018-11-10T22:59:08.997Z,86.54
2018-11-10T23:01:36.411Z,86.74
2018-11-10T23:04:03.871Z,86.89
2018-11-10T23:06:31.549Z,86.78
2018-11-10T23:08:58.980Z,86.46
2018-11-10T23:11:26.468Z,86.62
2018-11-10T23:13:53.971Z,86.90
2018-11-10T23:16:21.501Z,86.94
2018-11-10T23:18:48.952Z,86.92
2018-11-10T23:21:16.501Z,87.23
2018-11-10T23:23:43.987Z,87.04
2018-11-10T23:26:11.485Z,86.87
2018-11-10T23:28:38.928Z,87.04
2018-11-10T23:31:06.431Z,87.02
2018-11-10T23:33:33.866Z,87.01
2018-11-10T23:36:01.286Z,86.89
2018-11-10T23:38:29.348Z,87.06
2018-11-10T23:40:57.746Z,86.93
2018-11-10T23:43:25.201Z,87.01
2018-11-10T23:45:52.611Z,86.96
2018-11-10T23:48:20.176Z,86.93
2018-11-10T23:50:47.647Z,86.89
2018-11-10T23:53:15.123Z,86.68
2018-11-10T23:55:43.392Z,86.71
2018-11-10T23:58:10.836Z,86.47
